createdAt,value
2018-06-16T03:01:06.407Z,97.94
2018-06-16T03:02:10.603Z,97.75
2018-06-16T03:03:10.946Z,97.56
2018-06-16T03:04:09.685Z,97.56
2018-06-16T03:05:11.031Z,97.94
2018-06-16T03:06:11.075Z,98.71
2018-06-16T03:07:09.130Z,98.61
2018-06-16T03:08:13.789Z,98.33
2018-06-16T03:09:11.520Z,98.71
2018-06-16T03:10:11.891Z,98.42
2018-06-16T03:11:10.228Z,98.42
2018-06-16T03:12:10.666Z,98.52
2018-06-16T03:13:13.137Z,99.38
2018-06-16T03:14:09.350Z,99.28
2018-06-16T03:15:07.896Z,98.90
2018-06-16T03:16:07.272Z,99.09
2018-06-16T03:17:07.659Z,99.38
2018-06-16T03:18:06.975Z,99.14
2018-06-16T03:19:06.990Z,98.80
2018-06-16T03:20:07.017Z,98.61
2018-06-16T03:21:07.400Z,98.52
2018-06-16T03:22:07.390Z,98.23
2018-06-16T03:23:07.878Z,98.28
2018-06-16T03:24:19.260Z,98.42
2018-06-16T03:25:07.995Z,98.66
2018-06-16T03:26:07.914Z,97.85
2018-06-16T03:27:08.441Z,98.61
2018-06-16T03:28:08.403Z,98.37
2018-06-16T03:29:08.564Z,98.57
2018-06-16T03:30:08.618Z,98.28
2018-06-16T03:31:08.846Z,98.47
2018-06-16T03:32:09.124Z,98.37
2018-06-16T03:33:09.406Z,98.18
2018-06-16T03:34:09.471Z,98.47
2018-06-16T03:35:09.520Z,98.18
2018-06-16T03:36:09.640Z,98.57
2018-06-16T03:37:10.757Z,99.33
2018-06-16T03:38:10.107Z,99.23
2018-06-16T03:39:10.303Z,99.23
2018-06-16T03:40:10.350Z,98.66
2018-06-16T03:41:10.798Z,98.85
2018-06-16T03:42:10.874Z,98.85
2018-06-16T03:43:11.158Z,99.04
2018-06-16T03:44:11.293Z,99.04
2018-06-16T03:45:11.836Z,99.04
2018-06-16T03:46:11.714Z,99.43
2018-06-16T03:47:12.650Z,99.04
2018-06-16T03:48:12.189Z,99.43
2018-06-16T03:49:12.111Z,99.33
2018-06-16T03:50:12.496Z,98.94
2018-06-16T03:51:12.585Z,98.85
2018-06-16T03:52:12.654Z,98.85
2018-06-16T03:53:12.883Z,98.94
2018-06-16T03:54:13.222Z,99.04
2018-06-16T03:55:13.385Z,98.66
2018-06-16T03:56:13.345Z,98.37
2018-06-16T03:57:13.550Z,98.57
2018-06-16T03:58:13.604Z,98.47
2018-06-16T03:59:13.912Z,99.14
2018-06-16T04:00:14.382Z,98.42
2018-06-16T04:01:14.505Z,98.37
2018-06-16T04:02:14.626Z,98.47
2018-06-16T04:03:14.848Z,98.42
2018-06-16T04:04:15.326Z,98.37
2018-06-16T04:05:15.306Z,98.37
2018-06-16T04:06:15.159Z,99.33
2018-06-16T04:07:15.427Z,98.57
2018-06-16T04:08:15.836Z,98.57
2018-06-16T04:09:16.041Z,97.99
2018-06-16T04:10:15.635Z,97.99
2018-06-16T04:11:15.879Z,97.94
2018-06-16T04:12:16.065Z,97.89
2018-06-16T04:13:16.548Z,97.71
2018-06-16T04:14:16.399Z,97.85
2018-06-16T04:15:16.365Z,97.75
2018-06-16T04:16:16.780Z,97.94
2018-06-16T04:17:17.294Z,97.94
2018-06-16T04:18:17.553Z,97.94
2018-06-16T04:19:17.188Z,97.47
2018-06-16T04:20:18.096Z,97.75
2018-06-16T04:21:17.764Z,97.08
2018-06-16T04:22:17.813Z,96.84
2018-06-16T04:23:17.905Z,97.23
2018-06-16T04:24:18.473Z,97.56
2018-06-16T04:25:19.153Z,97.61
2018-06-16T04:26:18.453Z,97.71
2018-06-16T04:27:18.544Z,97.71
2018-06-16T04:28:18.825Z,97.61
2018-06-16T04:29:18.994Z,97.61
2018-06-16T04:30:19.103Z,97.61
2018-06-16T04:31:19.321Z,97.61
2018-06-16T04:32:19.504Z,97.75
2018-06-16T04:33:19.671Z,97.89
2018-06-16T04:34:19.908Z,97.66
2018-06-16T04:35:20.101Z,97.61
2018-06-16T04:36:20.236Z,97.32
2018-06-16T04:37:20.423Z,97.32
2018-06-16T04:38:20.620Z,96.89
2018-06-16T04:39:20.878Z,97.23
2018-06-16T04:40:21.081Z,96.56
2018-06-16T04:41:21.094Z,96.51
2018-06-16T04:42:21.339Z,96.66
2018-06-16T04:43:21.642Z,97.08
2018-06-16T04:44:21.922Z,97.03
2018-06-16T04:45:21.933Z,97.28
2018-06-16T04:46:22.178Z,97.03
2018-06-16T04:47:22.227Z,97.28
2018-06-16T04:48:22.468Z,96.80
2018-06-16T04:49:22.492Z,97.18
2018-06-16T04:50:22.805Z,97.18
2018-06-16T04:51:22.917Z,97.56
2018-06-16T04:52:23.247Z,97.28
2018-06-16T04:53:23.706Z,97.18
2018-06-16T04:54:23.506Z,97.37
2018-06-16T04:55:23.564Z,97.28
2018-06-16T04:56:23.747Z,97.08
2018-06-16T04:57:24.031Z,97.28
2018-06-16T04:58:24.097Z,97.18
2018-06-16T04:59:24.950Z,97.18
2018-06-16T05:00:24.929Z,97.08
2018-06-16T05:01:25.211Z,96.94
2018-06-16T05:02:24.790Z,97.52
2018-06-16T05:03:25.049Z,97.33
2018-06-16T05:04:25.308Z,97.33
2018-06-16T05:05:25.526Z,97.42
2018-06-16T05:06:25.612Z,96.66
2018-06-16T05:07:25.838Z,96.37
2018-06-16T05:08:25.973Z,96.27
2018-06-16T05:09:25.951Z,96.08
2018-06-16T05:10:26.191Z,96.18
2018-06-16T05:11:26.531Z,96.08
2018-06-16T05:12:26.753Z,95.51
2018-06-16T05:13:27.085Z,95.70
2018-06-16T05:14:27.073Z,95.70
2018-06-16T05:15:27.172Z,95.70
2018-06-16T05:16:27.135Z,96.13
2018-06-16T05:17:27.452Z,95.46
2018-06-16T05:18:27.505Z,95.94
2018-06-16T05:19:27.635Z,95.94
2018-06-16T05:20:27.824Z,95.36
2018-06-16T05:21:27.990Z,95.36
2018-06-16T05:22:28.097Z,95.36
2018-06-16T05:23:29.021Z,94.93
2018-06-16T05:24:28.541Z,95.03
2018-06-16T05:25:28.654Z,94.84
2018-06-16T05:26:28.857Z,94.07
2018-06-16T05:27:29.037Z,94.65
2018-06-16T05:28:29.182Z,94.17
2018-06-16T05:29:29.303Z,93.98
2018-06-16T05:30:29.535Z,94.12
2018-06-16T05:31:30.807Z,93.54
2018-06-16T05:32:30.403Z,93.35
2018-06-16T05:33:30.128Z,93.45
2018-06-16T05:34:30.227Z,93.35
2018-06-16T05:35:30.415Z,93.16
2018-06-16T05:36:30.585Z,93.11
2018-06-16T05:37:30.707Z,92.63
2018-06-16T05:38:30.883Z,93.02
2018-06-16T05:39:31.986Z,93.02
2018-06-16T05:40:31.193Z,92.54
2018-06-16T05:41:31.401Z,91.72
2018-06-16T05:42:31.584Z,92.20
2018-06-16T05:43:31.691Z,91.82
2018-06-16T05:44:31.840Z,91.72
2018-06-16T05:45:32.056Z,92.10
2018-06-16T05:46:32.236Z,91.53
2018-06-16T05:47:32.591Z,91.05
2018-06-16T05:48:32.509Z,90.52
2018-06-16T05:49:32.718Z,89.85
2018-06-16T05:50:32.873Z,89.56
2018-06-16T05:51:33.081Z,89.56
2018-06-16T05:52:33.288Z,90.23
2018-06-16T05:53:33.569Z,90.14
2018-06-16T05:54:33.652Z,89.94
2018-06-16T05:55:33.924Z,90.33
2018-06-16T05:56:34.065Z,90.66
2018-06-16T05:57:34.205Z,90.37
2018-06-16T05:58:34.497Z,90.14
2018-06-16T05:59:34.726Z,89.51
2018-06-16T06:00:34.842Z,89.70
2018-06-16T06:01:35.018Z,90.08
2018-06-16T06:02:35.783Z,89.70
2018-06-16T06:03:35.396Z,89.12
2018-06-16T06:04:35.560Z,88.93
2018-06-16T06:05:35.746Z,88.93
2018-06-16T06:06:35.885Z,89.22
2018-06-16T06:07:36.159Z,88.55
2018-06-16T06:08:36.283Z,88.40
2018-06-16T06:09:36.438Z,88.02
2018-06-16T06:10:36.701Z,87.63
2018-06-16T06:11:36.823Z,87.63
2018-06-16T06:12:36.927Z,87.54
2018-06-16T06:13:37.377Z,86.87
2018-06-16T06:14:37.547Z,87.82
2018-06-16T06:15:37.465Z,87.82
2018-06-16T06:16:37.596Z,86.87
2018-06-16T06:17:37.796Z,87.44
2018-06-16T06:18:37.888Z,87.58
2018-06-16T06:19:38.209Z,87.58
2018-06-16T06:20:38.311Z,86.81
2018-06-16T06:21:38.438Z,87.49
2018-06-16T06:22:38.654Z,86.05
2018-06-16T06:23:38.786Z,86.33
2018-06-16T06:24:38.928Z,85.85
2018-06-16T06:25:39.174Z,84.80
2018-06-16T06:26:39.400Z,85.41
2018-06-16T06:27:39.528Z,85.03
2018-06-16T06:28:39.739Z,85.22
2018-06-16T06:29:40.659Z,85.03
2018-06-16T06:30:40.037Z,84.84
2018-06-16T06:31:40.116Z,85.80
2018-06-16T06:32:40.351Z,85.22
2018-06-16T06:33:40.507Z,84.98
2018-06-16T06:34:40.701Z,85.07
2018-06-16T06:35:40.811Z,85.07
2018-06-16T06:36:41.049Z,85.07
2018-06-16T06:37:41.219Z,85.27
2018-06-16T06:38:41.488Z,84.88
2018-06-16T06:39:41.583Z,84.50
2018-06-16T06:40:41.792Z,84.21
2018-06-16T06:41:41.971Z,84.40
2018-06-16T06:42:42.074Z,84.59
2018-06-16T06:43:42.331Z,85.17
2018-06-16T06:44:43.426Z,84.16
2018-06-16T06:45:42.634Z,83.29
2018-06-16T06:46:42.830Z,83.67
2018-06-16T06:47:42.901Z,85.11
2018-06-16T06:48:43.183Z,84.16
2018-06-16T06:49:43.275Z,84.54
2018-06-16T06:50:43.439Z,83.86
2018-06-16T06:51:43.710Z,83.33
2018-06-16T06:52:43.833Z,82.65
2018-06-16T06:53:44.031Z,81.30
2018-06-16T06:54:44.165Z,80.63
2018-06-16T06:55:44.412Z,80.68
2018-06-16T06:56:44.503Z,80.58
2018-06-16T06:57:44.726Z,79.52
2018-06-16T06:58:44.859Z,78.27
2018-06-16T06:59:45.108Z,79.85
2018-06-16T07:00:45.288Z,79.46
2018-06-16T07:01:45.376Z,78.11
2018-06-16T07:02:45.632Z,78.79
2018-06-16T07:03:45.788Z,77.34
2018-06-16T07:04:46.104Z,77.34
2018-06-16T07:05:46.170Z,77.34
2018-06-16T07:06:46.254Z,77.34
2018-06-16T07:07:46.530Z,77.53
2018-06-16T07:08:46.815Z,77.48
2018-06-16T07:09:46.842Z,77.19
2018-06-16T07:10:47.324Z,76.23
2018-06-16T07:11:47.328Z,75.55
2018-06-16T07:12:47.496Z,75.40
2018-06-16T07:13:47.643Z,74.82
2018-06-16T07:14:47.795Z,74.14
2018-06-16T07:15:48.007Z,74.43
2018-06-16T07:16:48.231Z,74.18
2018-06-16T07:17:48.369Z,74.27
2018-06-16T07:18:48.460Z,73.21
2018-06-16T07:19:48.681Z,73.21
2018-06-16T07:20:48.780Z,73.21
2018-06-16T07:21:49.002Z,72.54
2018-06-16T07:22:49.148Z,72.15
2018-06-16T07:23:49.369Z,71.86
2018-06-16T07:24:49.558Z,72.25
2018-06-16T07:25:49.742Z,72.06
2018-06-16T07:26:49.838Z,72.15
2018-06-16T07:27:50.175Z,72.48
2018-06-16T07:28:50.283Z,72.48
2018-06-16T07:29:50.629Z,71.70
2018-06-16T07:30:50.782Z,71.80
2018-06-16T07:31:50.795Z,70.54
2018-06-16T07:32:50.990Z,70.06
2018-06-16T07:33:51.077Z,69.97
2018-06-16T07:34:51.276Z,70.36
2018-06-16T07:35:51.474Z,70.64
2018-06-16T07:36:51.661Z,71.06
2018-06-16T07:37:51.941Z,70.10
2018-06-16T07:38:52.092Z,69.90
2018-06-16T07:39:52.200Z,70.32
2018-06-16T07:40:52.383Z,69.17
2018-06-16T07:41:52.515Z,67.82
2018-06-16T07:42:52.723Z,69.46
2018-06-16T07:43:53.004Z,68.68
2018-06-16T07:44:53.150Z,69.56
2018-06-16T07:45:53.255Z,67.33
2018-06-16T07:46:53.443Z,66.94
2018-06-16T07:47:53.596Z,65.88
2018-06-16T07:48:53.908Z,66.08
2018-06-16T07:49:53.968Z,65.50
2018-06-16T07:50:54.176Z,65.88
2018-06-16T07:51:54.375Z,64.34
2018-06-16T07:52:54.563Z,66.66
2018-06-16T07:53:54.723Z,65.40
2018-06-16T07:54:54.849Z,65.53
2018-06-16T07:55:55.083Z,65.72
2018-06-16T07:56:55.266Z,65.34
2018-06-16T07:57:55.372Z,66.20
2018-06-16T07:58:55.651Z,65.24
2018-06-16T07:59:55.898Z,65.43
2018-06-16T08:00:55.981Z,64.98
2018-06-16T08:01:56.206Z,64.59
2018-06-16T08:02:56.269Z,64.40
2018-06-16T08:03:56.487Z,63.85
2018-06-16T08:04:56.699Z,63.66
2018-06-16T08:05:56.914Z,61.43
2018-06-16T08:06:56.971Z,61.63
2018-06-16T08:07:57.255Z,61.43
2018-06-16T08:08:57.389Z,63.56
2018-06-16T08:09:57.651Z,63.27
2018-06-16T08:10:57.710Z,63.08
2018-06-16T08:11:57.925Z,61.24
2018-06-16T08:12:58.100Z,63.56
2018-06-16T08:13:58.306Z,60.59
2018-06-16T08:14:58.392Z,61.08
2018-06-16T08:15:58.621Z,61.79
2018-06-16T08:16:58.820Z,61.11
2018-06-16T08:17:58.953Z,60.52
2018-06-16T08:18:59.074Z,57.45
2018-06-16T08:19:59.267Z,58.04
2018-06-16T08:20:59.464Z,58.62
2018-06-16T08:21:59.616Z,59.13
2018-06-16T08:22:59.774Z,59.52
2018-06-16T08:24:00.020Z,58.45
2018-06-16T08:25:00.135Z,58.55
2018-06-16T08:26:00.343Z,56.81
2018-06-16T08:27:00.651Z,57.39
2018-06-16T08:28:00.707Z,57.65
2018-06-16T08:29:00.882Z,60.00
2018-06-16T08:30:01.085Z,59.23
2018-06-16T08:31:01.286Z,58.65
2018-06-16T08:32:01.440Z,57.94
2018-06-16T08:33:01.587Z,59.75
2018-06-16T08:34:01.815Z,61.14
2018-06-16T08:35:02.007Z,61.04
2018-06-16T08:36:02.159Z,60.65
2018-06-16T08:37:02.277Z,59.71
2018-06-16T08:38:02.488Z,58.36
2018-06-16T08:39:02.749Z,60.39
2018-06-16T08:40:02.822Z,60.68
2018-06-16T08:41:03.066Z,58.77
2018-06-16T08:42:03.196Z,57.32
2018-06-16T08:43:03.372Z,58.97
2018-06-16T08:44:03.621Z,59.38
2018-06-16T08:45:03.803Z,55.28
2018-06-16T08:46:03.925Z,56.83
2018-06-16T08:47:04.142Z,54.44
2018-06-16T08:48:04.395Z,56.09
2018-06-16T08:49:04.511Z,55.89
2018-06-16T08:50:04.815Z,57.15
2018-06-16T08:51:04.796Z,55.99
2018-06-16T08:52:05.040Z,54.92
2018-06-16T08:53:05.190Z,54.63
2018-06-16T08:54:05.411Z,55.02
2018-06-16T08:55:05.630Z,54.80
2018-06-16T08:56:05.840Z,56.47
2018-06-16T08:57:06.003Z,54.34
2018-06-16T08:58:06.136Z,54.53
2018-06-16T08:59:06.320Z,54.60
2018-06-16T09:00:06.533Z,54.53
2018-06-16T09:01:06.824Z,56.86
2018-06-16T09:02:06.948Z,55.50
2018-06-16T09:03:07.197Z,56.54
2018-06-16T09:04:07.339Z,56.83
2018-06-16T09:05:07.534Z,57.80
2018-06-16T09:06:07.592Z,58.39
2018-06-16T09:07:07.791Z,54.70
2018-06-16T09:08:07.968Z,56.47
2018-06-16T09:09:08.296Z,53.83
2018-06-16T09:10:08.423Z,52.95
2018-06-16T09:11:08.594Z,52.98
2018-06-16T09:12:08.742Z,54.14
2018-06-16T09:13:08.932Z,56.11
2018-06-16T09:14:09.170Z,55.63
2018-06-16T09:15:09.368Z,55.43
2018-06-16T09:16:09.554Z,54.46
2018-06-16T09:17:09.729Z,53.85
2018-06-16T09:18:09.921Z,52.98
2018-06-16T09:19:10.172Z,53.85
2018-06-16T09:20:10.365Z,53.78
2018-06-16T09:21:10.526Z,53.49
2018-06-16T09:22:10.705Z,52.62
2018-06-16T09:23:10.898Z,52.62
2018-06-16T09:24:11.085Z,53.69
2018-06-16T09:25:11.440Z,53.78
2018-06-16T09:26:11.589Z,54.39
2018-06-16T09:27:11.724Z,53.91
2018-06-16T09:28:11.921Z,53.61
2018-06-16T09:29:12.019Z,52.25
2018-06-16T09:30:12.242Z,54.29
2018-06-16T09:31:12.668Z,54.13
2018-06-16T09:32:12.727Z,54.13
2018-06-16T09:33:12.946Z,51.70
2018-06-16T09:34:13.006Z,51.01
2018-06-16T09:35:13.174Z,52.09
2018-06-16T09:36:13.478Z,50.92
2018-06-16T09:37:13.712Z,51.53
2018-06-16T09:38:13.913Z,51.43
2018-06-16T09:39:13.921Z,50.95
2018-06-16T09:40:14.150Z,51.72
2018-06-16T09:41:14.280Z,51.70
2018-06-16T09:42:14.661Z,49.95
2018-06-16T09:43:14.739Z,50.31
2018-06-16T09:44:14.935Z,50.92
2018-06-16T09:45:15.074Z,52.15
2018-06-16T09:46:15.212Z,52.62
2018-06-16T09:47:15.421Z,54.07
2018-06-16T09:48:15.664Z,54.39
2018-06-16T09:49:15.741Z,53.52
2018-06-16T09:50:15.936Z,52.64
2018-06-16T09:51:16.152Z,52.74
2018-06-16T09:52:16.309Z,54.88
2018-06-16T09:53:16.519Z,53.71
2018-06-16T09:54:16.667Z,52.72
2018-06-16T09:55:16.904Z,51.77
2018-06-16T09:56:17.033Z,52.84
2018-06-16T09:57:17.186Z,52.55
2018-06-16T09:58:17.388Z,51.67
2018-06-16T09:59:17.645Z,51.77
2018-06-16T10:00:17.891Z,52.67
2018-06-16T10:01:17.984Z,52.84
2018-06-16T10:02:18.259Z,51.01
2018-06-16T10:03:18.401Z,49.56
2018-06-16T10:04:18.569Z,49.95
2018-06-16T10:05:18.708Z,49.19
2018-06-16T10:06:18.884Z,47.37
2018-06-16T10:07:19.080Z,49.22
2018-06-16T10:08:19.245Z,48.15
2018-06-16T10:09:19.451Z,49.32
2018-06-16T10:10:19.579Z,50.29
2018-06-16T10:11:19.813Z,49.92
2018-06-16T10:12:19.942Z,46.51
2018-06-16T10:13:20.134Z,45.74
2018-06-16T10:14:20.365Z,46.15
2018-06-16T10:15:20.543Z,46.15
2018-06-16T10:16:20.684Z,46.27
2018-06-16T10:17:20.894Z,45.20
2018-06-16T10:18:21.118Z,46.10
2018-06-16T10:19:21.277Z,46.78
2018-06-16T10:20:21.466Z,44.54
2018-06-16T10:21:21.682Z,44.71
2018-06-16T10:22:21.809Z,44.05
2018-06-16T10:23:22.019Z,40.55
2018-06-16T10:24:22.135Z,40.13
2018-06-16T10:25:22.297Z,37.13
2018-06-16T10:26:22.471Z,40.27
2018-06-16T10:27:22.691Z,40.66
2018-06-16T10:28:22.807Z,39.70
2018-06-16T10:29:23.032Z,40.00
2018-06-16T10:30:23.248Z,39.90
2018-06-16T10:31:23.291Z,38.75
2018-06-16T10:32:23.527Z,38.55
2018-06-16T10:33:23.966Z,37.48
2018-06-16T10:34:23.928Z,38.57
2018-06-16T10:35:24.321Z,38.67
2018-06-16T10:36:24.296Z,37.30
2018-06-16T10:37:24.422Z,37.70
2018-06-16T10:38:24.594Z,38.98
2018-06-16T10:39:24.842Z,37.34
2018-06-16T10:40:24.970Z,34.33
2018-06-16T10:41:25.155Z,34.62
2018-06-16T10:42:25.274Z,33.56
2018-06-16T10:43:25.479Z,32.76
2018-06-16T10:44:25.741Z,35.42
2018-06-16T10:45:25.914Z,34.23
2018-06-16T10:46:26.065Z,34.29
2018-06-16T10:47:26.209Z,34.00
2018-06-16T10:48:26.388Z,36.15
2018-06-16T10:49:26.495Z,34.99
2018-06-16T10:50:26.786Z,32.35
2018-06-16T10:51:26.965Z,32.48
2018-06-16T10:52:27.104Z,34.06
2018-06-16T10:53:27.304Z,32.63
2018-06-16T10:54:27.526Z,31.96
2018-06-16T10:55:27.666Z,31.55
2018-06-16T10:56:27.837Z,32.23
2018-06-16T10:57:27.950Z,30.08
2018-06-16T10:58:28.164Z,30.99
2018-06-16T10:59:28.354Z,30.71
2018-06-16T11:00:28.628Z,27.57
2018-06-16T11:01:28.705Z,26.59
2018-06-16T11:02:28.943Z,27.77
2018-06-16T11:03:29.061Z,27.39
2018-06-16T11:04:29.299Z,27.75
2018-06-16T11:05:29.374Z,26.50
2018-06-16T11:06:29.548Z,26.56
2018-06-16T11:07:29.761Z,27.74
2018-06-16T11:08:29.968Z,28.74
2018-06-16T11:09:30.153Z,27.66
2018-06-16T11:10:30.406Z,26.09
2018-06-16T11:11:30.444Z,25.54
2018-06-16T11:12:30.619Z,25.24
2018-06-16T11:13:30.819Z,26.59
2018-06-16T11:14:31.015Z,27.92
2018-06-16T11:15:31.171Z,29.95
2018-06-16T11:16:31.423Z,30.12
2018-06-16T11:17:31.962Z,31.18
2018-06-16T11:18:31.727Z,33.74
2018-06-16T11:19:31.901Z,32.29
2018-06-16T11:20:32.006Z,30.46
2018-06-16T11:21:32.297Z,30.37
2018-06-16T11:22:32.459Z,31.67
2018-06-16T11:23:32.702Z,29.52
2018-06-16T11:24:32.856Z,30.32
2018-06-16T11:25:33.069Z,28.86
2018-06-16T11:26:33.226Z,27.09
2018-06-16T11:27:33.404Z,25.72
2018-06-16T11:28:33.563Z,26.51
2018-06-16T11:29:33.725Z,27.89
2018-06-16T11:30:33.892Z,28.37
2018-06-16T11:31:34.028Z,27.67
2018-06-16T11:32:34.291Z,29.34
2018-06-16T11:33:34.497Z,28.95
2018-06-16T11:34:34.672Z,28.36
2018-06-16T11:35:34.813Z,26.11
2018-06-16T11:36:35.000Z,26.31
2018-06-16T11:37:35.176Z,26.72
2018-06-16T11:38:35.416Z,26.92
2018-06-16T11:39:35.570Z,26.35
2018-06-16T11:40:35.721Z,25.74
2018-06-16T11:41:35.913Z,24.18
2018-06-16T11:42:36.074Z,23.50
2018-06-16T11:43:36.285Z,25.18
2018-06-16T11:44:36.444Z,24.79
2018-06-16T11:45:36.691Z,25.18
2018-06-16T11:46:36.847Z,24.97
2018-06-16T11:47:37.042Z,25.16
2018-06-16T11:48:37.235Z,27.69
2018-06-16T11:49:37.436Z,28.64
2018-06-16T11:50:37.556Z,30.87
2018-06-16T11:51:37.756Z,31.73
2018-06-16T11:52:37.942Z,32.40
2018-06-16T11:53:38.182Z,32.10
2018-06-16T11:54:38.418Z,32.66
2018-06-16T11:55:38.574Z,33.02
2018-06-16T11:56:38.726Z,31.46
2018-06-16T11:57:38.980Z,31.74
2018-06-16T11:58:39.094Z,33.58
2018-06-16T11:59:39.297Z,32.31
2018-06-16T12:00:39.467Z,32.63
2018-06-16T12:01:39.613Z,32.35
2018-06-16T12:02:39.863Z,30.00
2018-06-16T12:03:39.975Z,32.17
2018-06-16T12:04:40.242Z,30.00
2018-06-16T12:05:40.362Z,30.00
2018-06-16T12:06:40.526Z,30.19
2018-06-16T12:07:40.766Z,30.59
2018-06-16T12:08:40.908Z,30.77
2018-06-16T12:09:41.066Z,31.65
2018-06-16T12:10:41.301Z,31.25
2018-06-16T12:11:41.473Z,32.52
2018-06-16T12:12:41.577Z,35.25
2018-06-16T12:13:41.874Z,33.58
2018-06-16T12:14:41.977Z,33.40
2018-06-16T12:15:42.223Z,32.34
2018-06-16T12:16:42.389Z,31.77
2018-06-16T12:17:42.638Z,31.29
2018-06-16T12:18:42.806Z,33.46
2018-06-16T12:19:42.940Z,33.58
2018-06-16T12:20:43.125Z,32.01
2018-06-16T12:21:43.330Z,32.29
2018-06-16T12:22:43.528Z,32.70
2018-06-16T12:23:43.752Z,32.20
2018-06-16T12:24:43.795Z,30.64
2018-06-16T12:25:44.029Z,31.03
2018-06-16T12:26:44.162Z,29.85
2018-06-16T12:27:44.403Z,29.75
2018-06-16T12:28:44.636Z,29.07
2018-06-16T12:29:44.782Z,29.27
2018-06-16T12:30:45.047Z,28.30
2018-06-16T12:31:45.146Z,28.31
2018-06-16T12:32:45.341Z,29.50
2018-06-16T12:33:45.575Z,28.71
2018-06-16T12:34:45.715Z,29.97
2018-06-16T12:35:45.956Z,31.91
2018-06-16T12:36:46.037Z,30.82
2018-06-16T12:37:46.260Z,31.60
2018-06-16T12:38:46.462Z,32.58
2018-06-16T12:39:46.569Z,32.29
2018-06-16T12:40:46.798Z,31.90
2018-06-16T12:41:46.969Z,31.59
2018-06-16T12:42:47.152Z,30.52
2018-06-16T12:43:47.282Z,32.19
2018-06-16T12:44:47.404Z,32.30
2018-06-16T12:45:47.693Z,29.18
2018-06-16T12:46:47.778Z,28.79
2018-06-16T12:47:47.993Z,28.97
2018-06-16T12:48:48.141Z,30.62
2018-06-16T12:49:48.350Z,33.17
2018-06-16T12:50:48.604Z,33.04
2018-06-16T12:51:48.708Z,31.38
2018-06-16T12:52:48.924Z,32.65
2018-06-16T12:53:49.079Z,31.46
2018-06-16T12:54:49.233Z,31.75
2018-06-16T12:55:49.422Z,31.95
2018-06-16T12:56:49.535Z,32.92
2018-06-16T12:57:49.813Z,33.72
2018-06-16T12:58:49.948Z,31.75
2018-06-16T12:59:50.069Z,31.46
2018-06-16T13:00:50.270Z,32.53
2018-06-16T13:01:50.443Z,33.22
2018-06-16T13:02:50.599Z,33.23
2018-06-16T13:03:50.810Z,33.74
2018-06-16T13:04:50.925Z,30.91
2018-06-16T13:05:51.190Z,31.32
2018-06-16T13:06:51.332Z,33.79
2018-06-16T13:07:51.503Z,33.09
2018-06-16T13:08:51.669Z,31.21
2018-06-16T13:09:51.866Z,32.66
2018-06-16T13:10:51.994Z,35.11
2018-06-16T13:11:52.208Z,34.01
2018-06-16T13:12:52.341Z,34.01
2018-06-16T13:13:52.497Z,32.94
2018-06-16T13:14:52.685Z,33.72
2018-06-16T13:15:52.941Z,32.84
2018-06-16T13:16:53.038Z,33.31
2018-06-16T13:17:53.272Z,34.09
2018-06-16T13:18:53.447Z,35.55
2018-06-16T13:19:53.604Z,35.53
2018-06-16T13:20:53.700Z,35.63
2018-06-16T13:21:53.983Z,35.51
2018-06-16T13:22:54.070Z,33.93
2018-06-16T13:23:54.320Z,35.22
2018-06-16T13:24:54.552Z,36.58
2018-06-16T13:25:54.661Z,37.95
2018-06-16T13:26:54.904Z,36.66
2018-06-16T13:27:54.990Z,37.95
2018-06-16T13:28:55.166Z,35.59
2018-06-16T13:29:55.374Z,35.20
2018-06-16T13:30:55.542Z,35.31
2018-06-16T13:31:55.677Z,34.91
2018-06-16T13:32:55.835Z,33.73
2018-06-16T13:33:56.045Z,33.93
2018-06-16T13:34:56.209Z,34.63
2018-06-16T13:35:56.418Z,33.58
2018-06-16T13:36:56.595Z,33.69
2018-06-16T13:37:56.691Z,34.00
2018-06-16T13:38:56.927Z,34.78
2018-06-16T13:39:57.088Z,36.07
2018-06-16T13:40:57.310Z,35.38
2018-06-16T13:41:57.433Z,34.14
2018-06-16T13:42:57.668Z,34.44
2018-06-16T13:43:57.779Z,33.36
2018-06-16T13:44:58.003Z,33.36
2018-06-16T13:45:58.211Z,34.23
2018-06-16T13:46:58.370Z,35.40
2018-06-16T13:47:58.617Z,36.07
2018-06-16T13:48:58.791Z,33.90
2018-06-16T13:49:58.905Z,34.39
2018-06-16T13:50:59.079Z,34.09
2018-06-16T13:51:59.236Z,34.00
2018-06-16T13:52:59.351Z,34.29
2018-06-16T13:53:59.580Z,34.89
2018-06-16T13:54:59.900Z,35.75
2018-06-16T13:56:00.015Z,33.01
2018-06-16T13:57:00.175Z,34.67
2018-06-16T13:58:00.290Z,35.16
2018-06-16T13:59:00.488Z,34.18
2018-06-16T14:00:00.681Z,33.77
2018-06-16T14:01:00.869Z,33.89
2018-06-16T14:02:01.001Z,35.35
2018-06-16T14:03:01.229Z,34.08
2018-06-16T14:04:01.400Z,35.24
2018-06-16T14:05:01.606Z,36.70
2018-06-16T14:06:01.854Z,36.80
2018-06-16T14:07:01.946Z,37.38
2018-06-16T14:08:02.190Z,37.19
2018-06-16T14:09:02.264Z,35.33
2018-06-16T14:10:02.458Z,36.10
2018-06-16T14:11:02.651Z,38.63
2018-06-16T14:12:02.818Z,36.29
2018-06-16T14:13:03.032Z,34.31
2018-06-16T14:14:03.235Z,37.62
2018-06-16T14:15:03.388Z,37.50
2018-06-16T14:16:03.610Z,37.60
2018-06-16T14:17:03.767Z,39.82
2018-06-16T14:18:03.960Z,39.92
2018-06-16T14:19:04.110Z,38.07
2018-06-16T14:20:04.274Z,39.72
2018-06-16T14:21:04.490Z,41.09
2018-06-16T14:22:04.658Z,39.70
2018-06-16T14:23:04.845Z,41.26
2018-06-16T14:24:04.971Z,40.08
2018-06-16T14:25:05.219Z,41.14
2018-06-16T14:26:05.318Z,41.46
2018-06-16T14:27:05.458Z,42.63
2018-06-16T14:28:05.749Z,43.60
2018-06-16T14:29:05.880Z,43.13
2018-06-16T14:30:06.061Z,40.68
2018-06-16T14:31:06.261Z,40.01
2018-06-16T14:32:06.389Z,40.50
2018-06-16T14:33:06.606Z,39.82
2018-06-16T14:34:06.685Z,42.18
2018-06-16T14:35:06.914Z,40.60
2018-06-16T14:36:07.063Z,40.01
2018-06-16T14:37:07.229Z,40.50
2018-06-16T14:38:07.507Z,40.00
2018-06-16T14:39:07.673Z,40.60
2018-06-16T14:40:07.757Z,39.62
2018-06-16T14:41:07.995Z,40.11
2018-06-16T14:42:08.189Z,39.26
2018-06-16T14:43:08.349Z,41.22
2018-06-16T14:44:08.467Z,41.22
2018-06-16T14:45:08.733Z,40.42
2018-06-16T14:46:08.931Z,41.09
2018-06-16T14:47:09.067Z,40.01
2018-06-16T14:48:09.175Z,40.42
2018-06-16T14:49:09.431Z,39.36
2018-06-16T14:50:09.591Z,39.75
2018-06-16T14:51:09.805Z,39.26
2018-06-16T14:52:09.894Z,38.48
2018-06-16T14:53:10.074Z,39.55
2018-06-16T14:54:10.263Z,40.03
2018-06-16T14:55:10.452Z,41.01
2018-06-16T14:56:10.607Z,41.50
2018-06-16T14:57:10.795Z,41.50
2018-06-16T14:58:10.930Z,38.77
2018-06-16T14:59:11.142Z,39.76
2018-06-16T15:00:11.321Z,39.76
2018-06-16T15:01:11.458Z,39.88
2018-06-16T15:02:11.643Z,39.90
2018-06-16T15:03:11.830Z,38.34
2018-06-16T15:04:12.102Z,37.73
2018-06-16T15:05:12.131Z,38.61
2018-06-16T15:06:12.320Z,38.01
2018-06-16T15:07:12.515Z,39.86
2018-06-16T15:08:12.637Z,41.40
2018-06-16T15:09:12.867Z,42.76
2018-06-16T15:10:13.026Z,41.96
2018-06-16T15:11:13.315Z,42.66
2018-06-16T15:12:13.396Z,40.72
2018-06-16T15:13:13.635Z,39.84
2018-06-16T15:14:13.734Z,41.13
2018-06-16T15:15:13.968Z,42.00
2018-06-16T15:16:14.137Z,40.52
2018-06-16T15:17:14.268Z,42.66
2018-06-16T15:18:14.466Z,44.10
2018-06-16T15:19:14.615Z,45.67
2018-06-16T15:20:14.816Z,44.38
2018-06-16T15:21:14.964Z,43.70
2018-06-16T15:22:15.176Z,43.67
2018-06-16T15:23:15.330Z,42.50
2018-06-16T15:24:15.502Z,42.41
2018-06-16T15:25:15.661Z,43.87
2018-06-16T15:26:15.793Z,44.45
2018-06-16T15:27:15.979Z,44.45
2018-06-16T15:28:16.172Z,43.01
2018-06-16T15:29:16.364Z,43.33
2018-06-16T15:30:16.492Z,43.33
2018-06-16T15:31:16.697Z,42.96
2018-06-16T15:32:16.888Z,42.84
2018-06-16T15:33:17.099Z,42.84
2018-06-16T15:34:17.201Z,43.15
2018-06-16T15:35:17.412Z,42.57
2018-06-16T15:36:17.590Z,42.79
2018-06-16T15:37:17.740Z,41.22
2018-06-16T15:38:17.879Z,41.22
2018-06-16T15:39:18.123Z,40.45
2018-06-16T15:40:18.237Z,42.69
2018-06-16T15:41:18.385Z,43.44
2018-06-16T15:42:18.620Z,43.05
2018-06-16T15:43:18.784Z,42.35
2018-06-16T15:44:18.981Z,42.94
2018-06-16T15:45:19.083Z,42.96
2018-06-16T15:46:19.268Z,43.52
2018-06-16T15:47:19.429Z,42.55
2018-06-16T15:48:19.646Z,42.14
2018-06-16T15:49:19.859Z,42.70
2018-06-16T15:50:19.971Z,42.41
2018-06-16T15:51:20.225Z,42.80
2018-06-16T15:52:20.266Z,42.78
2018-06-16T15:53:20.476Z,42.58
2018-06-16T15:54:20.672Z,43.26
2018-06-16T15:55:20.829Z,43.82